Terminal Aerodrome Forecast
Issued by NWS Detroit/Pontiac, MI

Home | Current Version | Previous Version | Text Only | Print | Product List | Glossary On
Versions: 1 2 3 4 5 6 7 8 9 10 11 12 13 14
000
FTUS43 KDTX 072320
TAFFNT
TAF
KFNT 072320Z 0800/0824 35010KT P6SM OVC028
     FM080100 01010KT P6SM SCT028 BKN035
     FM080300 02006KT P6SM FEW035
     FM081900 04007KT P6SM BKN050=

USA.gov is the U.S. government's official web portal to all federal, state and local government web resources and services.